createdAt,value
2019-04-03T00:00:47.173Z,11.59
2019-04-03T00:01:47.239Z,11.52
2019-04-03T00:02:47.189Z,11.46
2019-04-03T00:03:47.139Z,11.59
2019-04-03T00:04:47.137Z,11.57
2019-04-03T00:05:47.118Z,11.49
2019-04-03T00:06:47.114Z,11.54
2019-04-03T00:07:47.155Z,11.56
2019-04-03T00:08:47.086Z,11.62
2019-04-03T00:09:47.073Z,11.64
2019-04-03T00:10:47.067Z,11.46
2019-04-03T00:11:47.127Z,11.46
2019-04-03T00:12:47.146Z,11.34
2019-04-03T00:13:47.034Z,11.46
2019-04-03T00:14:47.022Z,11.47
2019-04-03T00:15:47.018Z,11.50
2019-04-03T00:16:47.014Z,11.43
2019-04-03T00:17:46.992Z,11.36
2019-04-03T00:18:47.954Z,11.41
2019-04-03T00:19:47.692Z,11.44
2019-04-03T00:20:48.811Z,11.41
2019-04-03T00:21:46.949Z,11.38
2019-04-03T00:22:46.992Z,11.44
2019-04-03T00:23:46.926Z,11.34
2019-04-03T00:24:46.942Z,11.31
2019-04-03T00:25:46.899Z,11.49
2019-04-03T00:26:46.890Z,11.44
2019-04-03T00:27:46.876Z,11.49
2019-04-03T00:28:46.865Z,11.49
2019-04-03T00:29:46.864Z,11.41
2019-04-03T00:30:46.926Z,11.49
2019-04-03T00:31:46.837Z,11.36
2019-04-03T00:32:46.830Z,11.46
2019-04-03T00:33:46.867Z,11.44
2019-04-03T00:34:46.798Z,11.32
2019-04-03T00:35:46.793Z,11.49
2019-04-03T00:36:46.776Z,11.44
2019-04-03T00:37:46.780Z,11.43
2019-04-03T00:38:46.753Z,11.39
2019-04-03T00:39:46.741Z,11.35
2019-04-03T00:40:46.790Z,11.34
2019-04-03T00:41:46.728Z,11.41
2019-04-03T00:42:46.785Z,11.32
2019-04-03T00:43:46.702Z,11.31
2019-04-03T00:44:46.687Z,11.29
2019-04-03T00:45:46.676Z,11.24
2019-04-03T00:46:46.669Z,11.25
2019-04-03T00:47:46.682Z,11.27
2019-04-03T00:48:46.650Z,11.31
2019-04-03T00:49:46.635Z,11.14
2019-04-03T00:50:46.700Z,11.19
2019-04-03T00:51:46.608Z,11.13
2019-04-03T00:52:46.601Z,11.11
2019-04-03T00:53:46.586Z,11.25
2019-04-03T00:54:46.576Z,11.34
2019-04-03T00:55:46.569Z,11.19
2019-04-03T00:56:46.609Z,11.14
2019-04-03T00:57:46.543Z,11.35
2019-04-03T00:58:46.530Z,11.13
2019-04-03T00:59:46.535Z,11.13
2019-04-03T01:00:46.514Z,11.14
2019-04-03T01:01:46.690Z,11.25
2019-04-03T01:02:46.490Z,11.20
2019-04-03T01:03:46.479Z,11.14
2019-04-03T01:04:46.473Z,11.20
2019-04-03T01:05:46.460Z,11.20
2019-04-03T01:06:46.459Z,11.07
2019-04-03T01:07:46.430Z,11.16
2019-04-03T01:08:46.472Z,11.10
2019-04-03T01:09:46.409Z,11.06
2019-04-03T01:10:46.397Z,11.11
2019-04-03T01:11:46.593Z,11.19
2019-04-03T01:12:46.376Z,11.14
2019-04-03T01:13:46.363Z,11.01
2019-04-03T01:14:46.404Z,11.01
2019-04-03T01:15:46.342Z,11.02
2019-04-03T01:16:46.331Z,11.07
2019-04-03T01:17:46.325Z,11.17
2019-04-03T01:18:46.376Z,11.06
2019-04-03T01:19:46.327Z,11.17
2019-04-03T01:20:46.293Z,11.07
2019-04-03T01:21:46.320Z,11.03
2019-04-03T01:22:46.280Z,11.11
2019-04-03T01:23:46.262Z,11.07
2019-04-03T01:24:46.306Z,11.11
2019-04-03T01:25:46.254Z,11.01
2019-04-03T01:26:46.223Z,11.16
2019-04-03T01:27:46.377Z,11.13
2019-04-03T01:28:46.256Z,11.16
2019-04-03T01:29:46.257Z,10.95
2019-04-03T01:30:46.174Z,11.01
2019-04-03T01:31:46.163Z,11.14
2019-04-03T01:32:46.829Z,11.01
2019-04-03T01:33:47.076Z,11.09
2019-04-03T01:34:47.652Z,11.24
2019-04-03T01:35:47.459Z,11.10
2019-04-03T01:36:46.584Z,10.99
2019-04-03T01:37:46.096Z,11.09
2019-04-03T01:38:46.310Z,10.95
2019-04-03T01:39:46.077Z,11.13
2019-04-03T01:40:46.240Z,10.98
2019-04-03T01:41:46.063Z,11.03
2019-04-03T01:42:46.121Z,10.98
2019-04-03T01:43:46.030Z,10.98
2019-04-03T01:44:46.024Z,11.03
2019-04-03T01:45:46.086Z,11.07
2019-04-03T01:46:46.001Z,11.02
2019-04-03T01:47:45.996Z,11.01
2019-04-03T01:48:45.982Z,11.09
2019-04-03T01:49:45.972Z,11.03
2019-04-03T01:50:45.960Z,11.09
2019-04-03T01:51:46.076Z,11.09
2019-04-03T01:52:45.939Z,10.99
2019-04-03T01:53:45.925Z,10.91
2019-04-03T01:54:45.909Z,10.91
2019-04-03T01:55:45.903Z,10.89
2019-04-03T01:56:45.960Z,10.99
2019-04-03T01:57:45.959Z,10.94
2019-04-03T01:58:45.867Z,10.94
2019-04-03T01:59:45.904Z,10.86
2019-04-03T02:00:45.847Z,11.11
2019-04-03T02:01:45.889Z,10.96
2019-04-03T02:02:45.822Z,10.96
2019-04-03T02:03:45.814Z,11.01
2019-04-03T02:04:45.802Z,10.94
2019-04-03T02:05:45.860Z,10.94
2019-04-03T02:06:45.790Z,10.95
2019-04-03T02:07:45.772Z,10.92
2019-04-03T02:08:45.756Z,10.92
2019-04-03T02:09:46.582Z,10.96
2019-04-03T02:10:48.247Z,10.89
2019-04-03T02:11:45.776Z,10.92
2019-04-03T02:12:45.712Z,10.91
2019-04-03T02:13:45.895Z,10.94
2019-04-03T02:14:45.691Z,10.89
2019-04-03T02:15:45.674Z,10.88
2019-04-03T02:16:45.802Z,10.88
2019-04-03T02:17:45.666Z,10.84
2019-04-03T02:18:45.648Z,10.89
2019-04-03T02:19:45.793Z,10.89
2019-04-03T02:20:45.619Z,10.95
2019-04-03T02:21:45.609Z,10.96
2019-04-03T02:22:45.678Z,10.94
2019-04-03T02:23:45.709Z,10.95
2019-04-03T02:24:45.580Z,10.88
2019-04-03T02:25:45.711Z,10.94
2019-04-03T02:26:45.561Z,10.94
2019-04-03T02:27:45.540Z,10.83
2019-04-03T02:28:45.589Z,10.76
2019-04-03T02:29:45.656Z,10.86
2019-04-03T02:30:47.135Z,10.80
2019-04-03T02:31:45.498Z,10.86
2019-04-03T02:32:45.494Z,10.84
2019-04-03T02:33:45.498Z,10.91
2019-04-03T02:34:45.472Z,10.84
2019-04-03T02:35:45.484Z,10.88
2019-04-03T02:36:45.687Z,10.80
2019-04-03T02:37:48.267Z,10.92
2019-04-03T02:38:45.559Z,10.84
2019-04-03T02:39:45.547Z,10.88
2019-04-03T02:40:45.403Z,10.83
2019-04-03T02:41:45.390Z,10.77
2019-04-03T02:42:45.380Z,10.88
2019-04-03T02:43:46.708Z,10.84
2019-04-03T02:44:45.402Z,10.83
2019-04-03T02:45:45.347Z,10.78
2019-04-03T02:46:45.648Z,10.83
2019-04-03T02:47:45.520Z,10.84
2019-04-03T02:48:45.708Z,10.80
2019-04-03T02:49:45.298Z,10.84
2019-04-03T02:50:47.908Z,10.76
2019-04-03T02:51:45.279Z,10.76
2019-04-03T02:52:45.271Z,10.73
2019-04-03T02:53:45.448Z,10.70
2019-04-03T02:54:45.330Z,10.65
2019-04-03T02:55:45.343Z,10.68
2019-04-03T02:56:46.023Z,10.71
2019-04-03T02:57:48.402Z,10.66
2019-04-03T02:58:45.200Z,10.58
2019-04-03T02:59:45.244Z,10.59
2019-04-03T03:00:45.208Z,10.59
2019-04-03T03:01:45.169Z,10.52
2019-04-03T03:02:46.175Z,10.52
2019-04-03T03:03:48.492Z,10.46
2019-04-03T03:04:45.147Z,10.52
2019-04-03T03:05:45.355Z,10.47
2019-04-03T03:06:45.111Z,10.46
2019-04-03T03:07:45.217Z,10.46
2019-04-03T03:08:45.230Z,10.43
2019-04-03T03:09:46.617Z,10.47
2019-04-03T03:10:45.152Z,10.46
2019-04-03T03:11:45.204Z,10.44
2019-04-03T03:12:45.232Z,10.39
2019-04-03T03:13:45.038Z,10.34
2019-04-03T03:14:45.024Z,10.39
2019-04-03T03:15:45.527Z,10.32
2019-04-03T03:16:45.025Z,10.36
2019-04-03T03:17:45.279Z,10.39
2019-04-03T03:18:44.984Z,10.40
2019-04-03T03:19:44.974Z,10.36
2019-04-03T03:20:45.087Z,10.34
2019-04-03T03:21:45.580Z,10.30
2019-04-03T03:22:44.991Z,10.42
2019-04-03T03:23:44.923Z,10.37
2019-04-03T03:24:45.112Z,10.32
2019-04-03T03:25:44.901Z,10.28
2019-04-03T03:26:44.953Z,10.32
2019-04-03T03:27:45.162Z,10.36
2019-04-03T03:28:46.844Z,10.28
2019-04-03T03:29:44.859Z,10.22
2019-04-03T03:30:54.542Z,10.28
2019-04-03T03:32:05.409Z,10.25
2019-04-03T03:32:46.078Z,10.22
2019-04-03T03:33:45.325Z,10.24
2019-04-03T03:34:55.501Z,10.24
2019-04-03T03:35:48.594Z,10.30
2019-04-03T03:36:44.885Z,10.22
2019-04-03T03:37:44.886Z,10.36
2019-04-03T03:38:45.168Z,10.28
2019-04-03T03:39:44.756Z,10.25
2019-04-03T03:40:47.210Z,10.24
2019-04-03T03:41:45.020Z,10.22
2019-04-03T03:42:44.858Z,10.32
2019-04-03T03:43:45.244Z,10.18
2019-04-03T03:44:46.357Z,10.25
2019-04-03T03:45:44.741Z,10.22
2019-04-03T03:46:44.943Z,10.24
2019-04-03T03:47:44.720Z,10.17
2019-04-03T03:48:45.536Z,10.12
2019-04-03T03:49:48.394Z,10.19
2019-04-03T03:50:44.632Z,10.14
2019-04-03T03:51:44.743Z,10.14
2019-04-03T03:52:44.608Z,10.14
2019-04-03T03:53:46.073Z,10.04
2019-04-03T03:54:45.250Z,10.10
2019-04-03T03:55:44.573Z,10.15
2019-04-03T03:56:44.818Z,10.14
2019-04-03T03:57:44.559Z,10.04
2019-04-03T03:58:45.923Z,10.04
2019-04-03T03:59:44.533Z,10.01
2019-04-03T04:00:44.555Z,10.06
2019-04-03T04:01:44.535Z,10.03
2019-04-03T04:02:45.219Z,10.04
2019-04-03T04:03:44.599Z,10.01
2019-04-03T04:04:48.042Z,10.03
2019-04-03T04:05:44.468Z,9.96
2019-04-03T04:06:44.490Z,10.01
2019-04-03T04:07:44.509Z,10.01
2019-04-03T04:08:45.391Z,9.99
2019-04-03T04:09:44.423Z,10.00
2019-04-03T04:10:44.599Z,10.00
2019-04-03T04:11:44.401Z,9.99
2019-04-03T04:12:44.401Z,9.99
2019-04-03T04:13:47.553Z,10.00
2019-04-03T04:14:44.503Z,9.99
2019-04-03T04:15:44.361Z,9.93
2019-04-03T04:16:44.400Z,10.03
2019-04-03T04:17:48.494Z,10.01
2019-04-03T04:18:45.482Z,9.96
2019-04-03T04:19:44.311Z,10.00
2019-04-03T04:20:44.455Z,10.00
2019-04-03T04:21:45.129Z,10.01
2019-04-03T04:22:44.287Z,10.01
2019-04-03T04:23:44.408Z,9.96
2019-04-03T04:24:44.257Z,9.96
2019-04-03T04:25:44.669Z,9.91
2019-04-03T04:26:44.316Z,9.91
2019-04-03T04:27:44.385Z,10.00
2019-04-03T04:28:44.213Z,9.94
2019-04-03T04:29:44.206Z,9.94
2019-04-03T04:30:44.268Z,9.89
2019-04-03T04:31:44.484Z,9.96
2019-04-03T04:32:46.331Z,9.99
2019-04-03T04:33:44.175Z,9.97
2019-04-03T04:34:44.149Z,10.00
2019-04-03T04:35:44.157Z,10.01
2019-04-03T04:36:44.135Z,10.00
2019-04-03T04:37:44.320Z,10.00
2019-04-03T04:38:44.122Z,10.01
2019-04-03T04:39:44.312Z,9.99
2019-04-03T04:40:44.087Z,9.97
2019-04-03T04:41:44.130Z,10.03
2019-04-03T04:42:44.250Z,10.00
2019-04-03T04:43:44.246Z,9.91
2019-04-03T04:44:44.051Z,9.97
2019-04-03T04:45:44.309Z,9.91
2019-04-03T04:46:44.686Z,9.88
2019-04-03T04:47:46.470Z,9.94
2019-04-03T04:48:44.158Z,9.96
2019-04-03T04:49:43.990Z,9.93
2019-04-03T04:50:44.061Z,9.91
2019-04-03T04:51:44.020Z,9.94
2019-04-03T04:52:43.962Z,9.93
2019-04-03T04:53:43.950Z,9.99
2019-04-03T04:54:44.060Z,9.96
2019-04-03T04:55:43.923Z,9.96
2019-04-03T04:56:43.910Z,9.88
2019-04-03T04:57:43.977Z,9.93
2019-04-03T04:58:44.008Z,9.96
2019-04-03T04:59:45.155Z,9.82
2019-04-03T05:00:46.571Z,10.03
2019-04-03T05:01:43.855Z,9.96
2019-04-03T05:02:43.853Z,9.89
2019-04-03T05:03:44.127Z,9.94
2019-04-03T05:04:43.825Z,9.94
2019-04-03T05:05:43.818Z,9.94
2019-04-03T05:06:43.812Z,9.93
2019-04-03T05:07:43.849Z,9.94
2019-04-03T05:08:43.779Z,9.93
2019-04-03T05:09:43.775Z,9.94
2019-04-03T05:10:43.882Z,9.96
2019-04-03T05:11:43.804Z,9.97
2019-04-03T05:12:45.564Z,9.96
2019-04-03T05:13:46.350Z,9.97
2019-04-03T05:14:43.717Z,9.94
2019-04-03T05:15:43.834Z,9.93
2019-04-03T05:16:43.698Z,9.99
2019-04-03T05:17:43.829Z,10.03
2019-04-03T05:18:43.773Z,9.97
2019-04-03T05:19:43.935Z,10.06
2019-04-03T05:20:43.656Z,10.00
2019-04-03T05:21:43.663Z,10.04
2019-04-03T05:22:43.635Z,10.09
2019-04-03T05:23:43.850Z,10.12
2019-04-03T05:24:43.615Z,10.03
2019-04-03T05:25:43.600Z,10.03
2019-04-03T05:26:43.735Z,10.00
2019-04-03T05:27:43.583Z,9.97
2019-04-03T05:28:54.373Z,10.03
2019-04-03T05:29:44.628Z,9.96
2019-04-03T05:30:43.546Z,10.01
2019-04-03T05:31:43.536Z,9.96
2019-04-03T05:32:43.523Z,9.97
2019-04-03T05:33:43.520Z,10.00
2019-04-03T05:34:44.426Z,10.14
2019-04-03T05:35:45.309Z,10.01
2019-04-03T05:36:44.006Z,10.07
2019-04-03T05:37:43.627Z,10.01
2019-04-03T05:38:43.460Z,10.00
2019-04-03T05:39:43.445Z,10.00
2019-04-03T05:40:43.522Z,10.03
2019-04-03T05:41:43.435Z,9.97
2019-04-03T05:42:43.418Z,10.03
2019-04-03T05:43:43.530Z,10.01
2019-04-03T05:44:43.395Z,10.04
2019-04-03T05:45:43.396Z,9.96
2019-04-03T05:46:43.368Z,10.01
2019-04-03T05:47:43.491Z,10.01
2019-04-03T05:48:43.346Z,10.01
2019-04-03T05:49:46.249Z,10.07
2019-04-03T05:50:43.370Z,10.14
2019-04-03T05:51:43.576Z,10.18
2019-04-03T05:52:43.306Z,10.17
2019-04-03T05:53:43.405Z,10.17
2019-04-03T05:54:44.586Z,10.18
2019-04-03T05:55:43.347Z,10.14
2019-04-03T05:56:43.427Z,10.18
2019-04-03T05:57:45.987Z,10.12
2019-04-03T05:58:54.440Z,10.14
2019-04-03T05:59:44.590Z,10.14
2019-04-03T06:00:43.266Z,10.19
2019-04-03T06:01:46.549Z,10.15
2019-04-03T06:02:43.199Z,10.15
2019-04-03T06:03:45.622Z,10.15
2019-04-03T06:04:43.214Z,10.21
2019-04-03T06:05:44.034Z,10.28
2019-04-03T06:06:45.917Z,10.24
2019-04-03T06:07:43.167Z,10.28
2019-04-03T06:08:43.156Z,10.30
2019-04-03T06:09:43.179Z,10.32
2019-04-03T06:10:43.105Z,10.33
2019-04-03T06:11:43.099Z,10.33
2019-04-03T06:12:45.375Z,10.39
2019-04-03T06:13:43.327Z,10.42
2019-04-03T06:14:43.065Z,10.40
2019-04-03T06:15:43.060Z,10.40
2019-04-03T06:16:43.042Z,10.39
2019-04-03T06:17:43.045Z,10.42
2019-04-03T06:18:43.161Z,10.44
2019-04-03T06:19:43.307Z,10.51
2019-04-03T06:20:43.931Z,10.47
2019-04-03T06:21:45.710Z,10.58
2019-04-03T06:22:43.214Z,10.55
2019-04-03T06:23:42.995Z,10.63
2019-04-03T06:24:42.979Z,10.62
2019-04-03T06:25:42.979Z,10.63
2019-04-03T06:26:44.634Z,10.76
2019-04-03T06:27:45.947Z,10.77
2019-04-03T06:28:44.950Z,10.89
2019-04-03T06:29:42.909Z,10.84
2019-04-03T06:30:42.891Z,10.89
2019-04-03T06:31:42.878Z,10.92
2019-04-03T06:32:42.861Z,10.94
2019-04-03T06:33:42.864Z,10.81
2019-04-03T06:34:43.781Z,10.86
2019-04-03T06:35:44.548Z,11.01
2019-04-03T06:36:42.830Z,11.02
2019-04-03T06:37:42.816Z,11.13
2019-04-03T06:38:43.058Z,11.11
2019-04-03T06:39:42.799Z,11.02
2019-04-03T06:40:45.015Z,11.16
2019-04-03T06:41:43.850Z,11.21
2019-04-03T06:42:44.937Z,11.13
2019-04-03T06:43:42.799Z,11.17
2019-04-03T06:44:42.896Z,11.21
2019-04-03T06:45:43.969Z,11.28
2019-04-03T06:46:42.914Z,11.35
2019-04-03T06:47:42.822Z,11.31
2019-04-03T06:48:42.918Z,11.44
2019-04-03T06:49:43.034Z,11.35
2019-04-03T06:50:42.723Z,11.34
2019-04-03T06:51:42.739Z,11.38
2019-04-03T06:52:43.029Z,11.47
2019-04-03T06:53:42.642Z,11.41
2019-04-03T06:54:44.247Z,11.57
2019-04-03T06:55:42.628Z,11.47
2019-04-03T06:56:42.598Z,11.61
2019-04-03T06:57:42.593Z,11.50
2019-04-03T06:58:44.392Z,11.46
2019-04-03T06:59:42.811Z,11.57
2019-04-03T07:00:42.619Z,11.53
2019-04-03T07:01:42.547Z,11.64
2019-04-03T07:02:42.546Z,11.77
2019-04-03T07:03:42.525Z,11.77
2019-04-03T07:04:42.509Z,11.80
2019-04-03T07:05:42.898Z,11.89
2019-04-03T07:06:42.792Z,11.93
2019-04-03T07:07:42.700Z,12.05
2019-04-03T07:08:42.759Z,12.15
2019-04-03T07:09:42.459Z,12.20
2019-04-03T07:10:54.202Z,12.37
2019-04-03T07:11:44.083Z,12.48
2019-04-03T07:12:42.562Z,12.49
2019-04-03T07:13:42.591Z,12.56
2019-04-03T07:14:42.406Z,12.56
2019-04-03T07:15:42.390Z,12.59
2019-04-03T07:16:42.404Z,12.63
2019-04-03T07:17:42.449Z,12.70
2019-04-03T07:18:42.357Z,12.82
2019-04-03T07:19:42.347Z,12.93
2019-04-03T07:20:42.344Z,12.87
2019-04-03T07:21:42.322Z,12.93
2019-04-03T07:22:42.391Z,12.95
2019-04-03T07:23:42.370Z,12.99
2019-04-03T07:24:42.291Z,13.11
2019-04-03T07:25:42.285Z,13.18
2019-04-03T07:26:42.274Z,13.25
2019-04-03T07:27:42.475Z,13.33
2019-04-03T07:28:42.451Z,13.33
2019-04-03T07:29:42.255Z,13.36
2019-04-03T07:30:42.232Z,13.30
2019-04-03T07:31:42.223Z,13.32
2019-04-03T07:32:42.298Z,13.38
2019-04-03T07:33:42.193Z,13.37
2019-04-03T07:34:42.187Z,13.41
2019-04-03T07:35:42.418Z,13.30
2019-04-03T07:36:44.670Z,13.44
2019-04-03T07:37:42.151Z,13.41
2019-04-03T07:38:42.162Z,13.56
2019-04-03T07:39:42.132Z,13.59
2019-04-03T07:40:42.117Z,13.71
2019-04-03T07:41:42.194Z,13.88
2019-04-03T07:42:42.220Z,14.12
2019-04-03T07:43:42.139Z,14.19
2019-04-03T07:44:42.073Z,14.35
2019-04-03T07:45:43.852Z,14.42
2019-04-03T07:46:42.049Z,14.52
2019-04-03T07:47:42.362Z,14.71
2019-04-03T07:48:42.086Z,14.69
2019-04-03T07:49:42.017Z,14.83
2019-04-03T07:50:42.348Z,14.93
2019-04-03T07:51:43.242Z,14.94
2019-04-03T07:52:41.989Z,15.03
2019-04-03T07:53:42.056Z,14.98
2019-04-03T07:54:41.969Z,14.95
2019-04-03T07:55:43.694Z,14.93
2019-04-03T07:56:42.019Z,14.94
2019-04-03T07:57:42.088Z,15.05
2019-04-03T07:58:42.175Z,14.93
2019-04-03T07:59:41.986Z,14.93
2019-04-03T08:00:42.138Z,15.02
2019-04-03T08:01:41.991Z,15.06
2019-04-03T08:02:47.241Z,15.01
2019-04-03T08:03:43.064Z,15.13
2019-04-03T08:04:41.855Z,15.19
2019-04-03T08:05:41.904Z,15.15
2019-04-03T08:06:41.835Z,15.23
2019-04-03T08:07:41.829Z,15.24
2019-04-03T08:08:41.813Z,15.28
2019-04-03T08:09:41.865Z,15.27
2019-04-03T08:10:42.007Z,15.45
2019-04-03T08:11:41.775Z,15.45
2019-04-03T08:12:41.829Z,15.56
2019-04-03T08:13:41.760Z,15.72
2019-04-03T08:14:41.989Z,15.85
2019-04-03T08:15:42.729Z,15.94
2019-04-03T08:16:43.189Z,15.96
2019-04-03T08:17:41.717Z,16.09
2019-04-03T08:18:41.704Z,16.22
2019-04-03T08:19:41.691Z,16.22
2019-04-03T08:20:41.676Z,16.26
2019-04-03T08:21:41.722Z,16.33
2019-04-03T08:22:41.739Z,16.44
2019-04-03T08:23:41.655Z,16.60
2019-04-03T08:24:41.660Z,16.75
2019-04-03T08:25:42.961Z,16.70
2019-04-03T08:26:42.668Z,16.77
2019-04-03T08:27:41.601Z,16.85
2019-04-03T08:28:41.595Z,17.06
2019-04-03T08:29:41.578Z,17.22
2019-04-03T08:30:41.569Z,17.20
2019-04-03T08:31:44.224Z,17.17
2019-04-03T08:32:41.648Z,17.22
2019-04-03T08:33:41.538Z,17.15
2019-04-03T08:34:41.532Z,17.25
2019-04-03T08:35:41.524Z,17.36
2019-04-03T08:36:41.663Z,17.46
2019-04-03T08:37:42.180Z,17.47
2019-04-03T08:38:43.991Z,17.47
2019-04-03T08:39:41.502Z,17.53
2019-04-03T08:40:41.470Z,17.63
2019-04-03T08:41:41.449Z,17.59
2019-04-03T08:42:41.496Z,17.74
2019-04-03T08:43:41.430Z,17.70
2019-04-03T08:44:41.419Z,17.73
2019-04-03T08:45:41.413Z,17.69
2019-04-03T08:46:43.911Z,17.78
2019-04-03T08:47:44.527Z,17.81
2019-04-03T08:48:41.410Z,17.78
2019-04-03T08:49:41.367Z,17.89
2019-04-03T08:50:41.355Z,18.12
2019-04-03T08:51:41.343Z,18.10
2019-04-03T08:52:41.335Z,18.24
2019-04-03T08:53:41.377Z,18.24
2019-04-03T08:54:42.150Z,18.43
2019-04-03T08:55:41.297Z,18.24
2019-04-03T08:56:41.289Z,18.19
2019-04-03T08:57:41.274Z,18.39
2019-04-03T08:58:41.438Z,18.40
2019-04-03T08:59:41.257Z,18.19
2019-04-03T09:00:41.240Z,18.27
2019-04-03T09:01:41.351Z,18.34
2019-04-03T09:02:43.766Z,18.58
2019-04-03T09:03:41.225Z,18.74
2019-04-03T09:04:41.194Z,18.87
2019-04-03T09:05:41.189Z,18.92
2019-04-03T09:06:41.182Z,18.83
2019-04-03T09:07:41.532Z,18.74
2019-04-03T09:08:41.187Z,18.84
2019-04-03T09:09:41.153Z,18.84
2019-04-03T09:10:41.130Z,19.05
2019-04-03T09:11:41.281Z,19.06
2019-04-03T09:12:41.120Z,19.23
2019-04-03T09:13:41.351Z,19.43
2019-04-03T09:14:41.085Z,19.53
2019-04-03T09:15:41.080Z,19.15
2019-04-03T09:16:41.296Z,19.01
2019-04-03T09:17:41.301Z,19.05
2019-04-03T09:18:41.051Z,18.84
2019-04-03T09:19:42.204Z,18.95
2019-04-03T09:20:43.267Z,19.05
2019-04-03T09:21:41.069Z,19.18
2019-04-03T09:22:41.038Z,19.40
2019-04-03T09:23:41.090Z,19.54
2019-04-03T09:24:41.035Z,19.78
2019-04-03T09:25:40.966Z,19.75
2019-04-03T09:26:40.961Z,19.65
2019-04-03T09:27:41.293Z,19.65
2019-04-03T09:28:42.183Z,19.70
2019-04-03T09:29:41.006Z,19.51
2019-04-03T09:30:40.918Z,18.94
2019-04-03T09:31:40.953Z,18.99
2019-04-03T09:32:41.016Z,18.99
2019-04-03T09:33:40.885Z,18.92
2019-04-03T09:34:40.870Z,19.06
2019-04-03T09:35:42.838Z,19.36
2019-04-03T09:36:40.856Z,19.29
2019-04-03T09:37:41.311Z,19.39
2019-04-03T09:38:41.885Z,18.92
2019-04-03T09:39:40.816Z,18.87
2019-04-03T09:40:40.842Z,19.15
2019-04-03T09:41:40.948Z,19.28
2019-04-03T09:42:40.794Z,19.40
2019-04-03T09:43:41.002Z,19.65
2019-04-03T09:44:40.817Z,19.88
2019-04-03T09:45:40.752Z,19.94
2019-04-03T09:46:41.062Z,19.80
2019-04-03T09:47:41.014Z,19.78
2019-04-03T09:48:40.728Z,19.60
2019-04-03T09:49:43.460Z,19.79
2019-04-03T09:50:40.703Z,20.06
2019-04-03T09:51:40.718Z,20.15
2019-04-03T09:52:48.452Z,20.31
2019-04-03T09:53:41.675Z,20.41
2019-04-03T09:54:40.662Z,20.41
2019-04-03T09:55:40.661Z,20.58
2019-04-03T09:56:56.129Z,20.41
2019-04-03T09:57:41.659Z,20.64
2019-04-03T09:58:40.757Z,20.91
2019-04-03T09:59:40.618Z,20.93
2019-04-03T10:00:41.983Z,21.02
2019-04-03T10:01:40.746Z,21.11
2019-04-03T10:02:40.571Z,21.16
2019-04-03T10:03:40.604Z,21.20
2019-04-03T10:04:40.860Z,21.21
2019-04-03T10:05:40.677Z,21.09
2019-04-03T10:06:40.547Z,20.84
2019-04-03T10:07:40.631Z,20.56
2019-04-03T10:08:41.138Z,20.56
2019-04-03T10:09:43.109Z,20.59
2019-04-03T10:10:40.487Z,20.15
2019-04-03T10:11:40.480Z,20.08
2019-04-03T10:12:42.608Z,20.10
2019-04-03T10:13:40.603Z,20.12
2019-04-03T10:14:40.609Z,19.90
2019-04-03T10:15:40.433Z,19.97
2019-04-03T10:16:40.714Z,20.09
2019-04-03T10:17:40.411Z,19.78
2019-04-03T10:18:41.775Z,19.31
2019-04-03T10:19:40.441Z,18.91
2019-04-03T10:20:40.373Z,19.06
2019-04-03T10:21:41.018Z,19.33
2019-04-03T10:22:40.571Z,19.72
2019-04-03T10:23:40.347Z,19.88
2019-04-03T10:24:40.389Z,20.08
2019-04-03T10:25:40.387Z,20.30
2019-04-03T10:26:40.894Z,20.27
2019-04-03T10:27:42.656Z,20.02
2019-04-03T10:28:42.562Z,19.69
2019-04-03T10:29:40.299Z,19.25
2019-04-03T10:30:40.266Z,19.10
2019-04-03T10:31:40.483Z,19.20
2019-04-03T10:32:40.292Z,19.42
2019-04-03T10:33:40.239Z,19.76
2019-04-03T10:34:40.222Z,20.16
2019-04-03T10:35:40.507Z,20.43
2019-04-03T10:36:42.088Z,20.71
2019-04-03T10:37:40.190Z,20.76
2019-04-03T10:38:41.924Z,20.86
2019-04-03T10:39:43.807Z,20.86
2019-04-03T10:40:40.217Z,20.95
2019-04-03T10:41:40.145Z,21.14
2019-04-03T10:42:40.243Z,21.36
2019-04-03T10:43:40.131Z,21.54
2019-04-03T10:44:40.114Z,21.51
2019-04-03T10:45:40.285Z,21.11
2019-04-03T10:46:40.097Z,21.13
2019-04-03T10:47:43.390Z,21.17
2019-04-03T10:48:40.159Z,21.30
2019-04-03T10:49:40.374Z,21.20
2019-04-03T10:50:40.048Z,21.24
2019-04-03T10:51:41.590Z,21.41
2019-04-03T10:52:40.184Z,21.57
2019-04-03T10:53:40.017Z,21.54
2019-04-03T10:54:40.240Z,21.64
2019-04-03T10:55:40.135Z,21.63
2019-04-03T10:56:40.058Z,21.38
2019-04-03T10:57:39.977Z,20.72
2019-04-03T10:58:42.239Z,20.72
2019-04-03T10:59:40.246Z,20.72
2019-04-03T11:00:39.941Z,20.83
2019-04-03T11:01:40.066Z,21.23
2019-04-03T11:02:39.977Z,21.51
2019-04-03T11:03:39.910Z,21.59
2019-04-03T11:04:39.903Z,21.66
2019-04-03T11:05:39.892Z,21.67
2019-04-03T11:06:40.146Z,21.27
2019-04-03T11:07:40.191Z,20.51
2019-04-03T11:08:40.135Z,20.13
2019-04-03T11:09:40.090Z,19.69
2019-04-03T11:10:39.881Z,19.76
2019-04-03T11:11:42.713Z,19.83
2019-04-03T11:12:39.814Z,20.10
2019-04-03T11:13:39.861Z,20.25
2019-04-03T11:14:40.118Z,20.31
2019-04-03T11:15:39.785Z,20.43
2019-04-03T11:16:39.772Z,20.79
2019-04-03T11:17:39.779Z,21.02
2019-04-03T11:18:39.755Z,21.42
2019-04-03T11:19:39.790Z,21.64
2019-04-03T11:20:41.014Z,21.66
2019-04-03T11:21:39.825Z,21.69
2019-04-03T11:22:42.173Z,21.30
2019-04-03T11:23:44.301Z,21.04
2019-04-03T11:24:42.239Z,20.98
2019-04-03T11:25:41.928Z,20.77
2019-04-03T11:26:39.738Z,20.86
2019-04-03T11:27:43.010Z,21.41
2019-04-03T11:28:40.145Z,21.71
2019-04-03T11:29:41.987Z,21.74
2019-04-03T11:30:39.847Z,22.10
2019-04-03T11:31:42.244Z,22.56
2019-04-03T11:32:41.369Z,23.08
2019-04-03T11:33:39.982Z,23.47
2019-04-03T11:34:39.641Z,23.24
2019-04-03T11:35:39.570Z,23.39
2019-04-03T11:36:39.557Z,23.34
2019-04-03T11:37:39.604Z,23.50
2019-04-03T11:38:39.543Z,23.67
2019-04-03T11:39:39.583Z,23.72
2019-04-03T11:40:39.532Z,23.90
2019-04-03T11:41:39.508Z,24.12
2019-04-03T11:42:39.512Z,24.02
2019-04-03T11:43:39.765Z,23.92
2019-04-03T11:44:39.537Z,23.55
2019-04-03T11:45:39.763Z,23.35
2019-04-03T11:46:39.756Z,22.96
2019-04-03T11:47:39.445Z,22.77
2019-04-03T11:48:42.292Z,22.62
2019-04-03T11:49:39.437Z,22.90
2019-04-03T11:50:40.188Z,22.94
2019-04-03T11:51:39.572Z,22.94
2019-04-03T11:52:39.386Z,22.99
2019-04-03T11:53:39.378Z,23.04
2019-04-03T11:54:39.995Z,22.89
2019-04-03T11:55:41.321Z,22.96
2019-04-03T11:56:39.396Z,22.92
2019-04-03T11:57:39.338Z,22.78
2019-04-03T11:58:39.320Z,22.93
2019-04-03T11:59:39.315Z,22.86
2019-04-03T12:00:39.304Z,22.87
2019-04-03T12:01:39.367Z,23.27
2019-04-03T12:02:40.329Z,23.46
2019-04-03T12:03:40.762Z,23.55
2019-04-03T12:04:39.257Z,23.76
2019-04-03T12:05:39.353Z,23.68
2019-04-03T12:06:39.569Z,23.53
2019-04-03T12:07:39.281Z,23.42
2019-04-03T12:08:39.225Z,23.14
2019-04-03T12:09:39.559Z,22.93
2019-04-03T12:10:39.494Z,22.49
2019-04-03T12:11:40.040Z,22.31
2019-04-03T12:12:40.127Z,22.23
2019-04-03T12:13:39.175Z,22.37
2019-04-03T12:14:39.156Z,22.60
2019-04-03T12:15:39.138Z,22.96
2019-04-03T12:16:39.272Z,22.97
2019-04-03T12:17:39.117Z,23.20
2019-04-03T12:18:39.378Z,23.55
2019-04-03T12:19:39.155Z,23.68
2019-04-03T12:20:43.722Z,23.72
2019-04-03T12:21:40.143Z,23.68
2019-04-03T12:22:39.066Z,23.47
2019-04-03T12:23:39.570Z,23.35
2019-04-03T12:24:39.521Z,23.35
2019-04-03T12:25:40.619Z,23.11
2019-04-03T12:26:39.024Z,22.97
2019-04-03T12:27:39.325Z,22.67
2019-04-03T12:28:39.057Z,22.53
2019-04-03T12:29:38.990Z,22.43
2019-04-03T12:30:38.996Z,22.46
2019-04-03T12:31:39.057Z,22.44
2019-04-03T12:32:43.547Z,22.25
2019-04-03T12:33:52.384Z,22.12
2019-04-03T12:34:39.936Z,21.94
2019-04-03T12:35:41.339Z,21.91
2019-04-03T12:36:39.226Z,21.71
2019-04-03T12:37:39.298Z,21.59
2019-04-03T12:38:38.949Z,21.38
2019-04-03T12:39:38.897Z,21.41
2019-04-03T12:40:38.964Z,21.41
2019-04-03T12:41:39.215Z,21.44
2019-04-03T12:42:38.908Z,21.44
2019-04-03T12:43:38.941Z,21.57
2019-04-03T12:44:38.957Z,21.57
2019-04-03T12:45:39.004Z,21.53
2019-04-03T12:46:41.023Z,21.42
2019-04-03T12:47:38.847Z,21.38
2019-04-03T12:48:38.988Z,21.30
2019-04-03T12:49:39.142Z,20.96
2019-04-03T12:50:38.988Z,20.98
2019-04-03T12:51:39.063Z,21.02
2019-04-03T12:52:38.742Z,21.09
2019-04-03T12:53:38.882Z,21.13
2019-04-03T12:54:38.771Z,21.13